Terminal Aerodrome Forecast
Issued by NWS

Home | Current Version | Previous Version | Text Only | Print | Product List | Glossary Off
Versions: 1 2 3 4 5 6 7 8 9 10 11 12 13 14 15 16 17 18 19

990
FTUS43 KMPX 140520
TAFAXN
TAF
KAXN 140520Z 1406/1506 36006KT P6SM OVC015
     FM140800 33006KT P6SM OVC015
     FM141400 30005KT P6SM OVC015
     FM141800 31008KT P6SM BKN020
     FM142200 31012KT P6SM BKN025
     FM150300 32010KT P6SM BKN035=

USA.gov is the U.S. government's official web portal to all federal, state and local government web resources and services.